Time;durP1;ratioP1;P1;durP2;ratioP2;P2;SDS_P1;SDS_P2;PMS_P1;PMS_P2;Temp;Humidity;BMP_temperature;BMP_pressure;BME280_temperature;BME280_humidity;BME280_pressure;Samples;Min_cycle;Max_cycle;Signal;HPM_P1;HPM_P2
2022/07/24 00:00:56;;;;;;;6.78;3.85;;;19.80;99.90;;;;;;4992955;28;20057;-58
2022/07/24 00:03:22;;;;;;;5.40;3.92;;;19.80;99.90;;;;;;4977984;28;20036;-58
2022/07/24 00:05:47;;;;;;;5.53;3.72;;;19.70;99.90;;;;;;4977898;28;20114;-59
2022/07/24 00:08:13;;;;;;;5.85;3.67;;;19.80;99.90;;;;;;4993149;28;20110;-58
2022/07/24 00:10:38;;;;;;;5.50;4.38;;;19.70;99.90;;;;;;4992755;28;20023;-58
2022/07/24 00:13:04;;;;;;;10.77;4.28;;;19.60;99.90;;;;;;4977382;28;20069;-57
2022/07/24 00:15:30;;;;;;;5.43;3.85;;;19.60;99.90;;;;;;4977419;28;20026;-58
2022/07/24 00:17:56;;;;;;;3.72;3.17;;;19.50;99.90;;;;;;4977330;28;20106;-55
2022/07/24 00:20:22;;;;;;;4.72;3.55;;;19.40;99.90;;;;;;4977189;28;20081;-59
2022/07/24 00:22:47;;;;;;;5.03;4.18;;;19.30;99.90;;;;;;4977286;28;20030;-59
2022/07/24 00:25:13;;;;;;;5.47;3.90;;;19.30;99.90;;;;;;4992323;28;20030;-59
2022/07/24 00:27:39;;;;;;;7.53;4.38;;;19.30;99.90;;;;;;4977275;28;20051;-57
2022/07/24 00:30:05;;;;;;;6.82;4.22;;;19.20;99.90;;;;;;4992428;28;20031;-57
2022/07/24 00:32:31;;;;;;;6.80;4.18;;;19.20;99.90;;;;;;5008758;28;20077;-58
2022/07/24 00:34:56;;;;;;;5.47;4.47;;;19.20;99.90;;;;;;4992369;28;20031;-58
2022/07/24 00:37:22;;;;;;;8.02;4.88;;;19.10;99.90;;;;;;4976998;28;20035;-57
2022/07/24 00:39:48;;;;;;;5.35;3.95;;;19.10;99.90;;;;;;5008327;28;20454;-59
2022/07/24 00:42:14;;;;;;;5.35;4.13;;;19.00;99.90;;;;;;4991925;28;20074;-60
2022/07/24 00:44:39;;;;;;;4.75;3.63;;;19.00;99.90;;;;;;4976482;28;20030;-56
2022/07/24 00:47:05;;;;;;;5.32;4.10;;;19.00;99.90;;;;;;4977200;28;20054;-56
2022/07/24 00:49:31;;;;;;;5.95;4.22;;;19.00;99.90;;;;;;5008709;28;20027;-59
2022/07/24 00:51:56;;;;;;;5.50;4.18;;;18.90;99.90;;;;;;5008079;28;20030;-60
2022/07/24 00:54:23;;;;;;;6.60;4.80;;;18.90;99.90;;;;;;4991645;28;20065;-59
2022/07/24 00:56:50;;;;;;;7.35;4.45;;;19.00;99.90;;;;;;4976589;28;20027;-59
2022/07/24 00:59:18;;;;;;;4.95;3.80;;;18.90;99.90;;;;;;4991933;28;20022;-58
2022/07/24 01:01:44;;;;;;;7.70;4.93;;;18.90;99.90;;;;;;4976545;28;20529;-59
2022/07/24 01:04:10;;;;;;;8.30;4.80;;;18.90;99.90;;;;;;4992189;28;20118;-58
2022/07/24 01:06:36;;;;;;;5.68;4.75;;;18.80;99.90;;;;;;4991489;28;20043;-59
2022/07/24 01:09:02;;;;;;;6.55;4.47;;;18.70;99.90;;;;;;4977075;28;20031;-58
2022/07/24 01:11:29;;;;;;;6.53;4.88;;;18.60;99.90;;;;;;4976376;28;20110;-58
2022/07/24 01:13:55;;;;;;;6.97;4.68;;;18.60;99.90;;;;;;4976664;28;20065;-59
2022/07/24 01:16:20;;;;;;;5.90;4.45;;;18.50;99.90;;;;;;4976506;28;20554;-59
2022/07/24 01:18:46;;;;;;;5.97;4.05;;;18.40;99.90;;;;;;4976279;28;20101;-56
2022/07/24 01:21:12;;;;;;;6.28;4.10;;;18.40;99.90;;;;;;4976048;28;20045;-60
2022/07/24 01:23:37;;;;;;;6.07;4.80;;;18.40;99.90;;;;;;4976271;28;20070;-59
2022/07/24 01:26:07;;;;;;;8.10;4.97;;;18.40;99.90;;;;;;4991210;28;20508;-59
2022/07/24 01:28:32;;;;;;;6.13;4.32;;;18.30;99.90;;;;;;4991357;28;20153;-60
2022/07/24 01:30:58;;;;;;;5.82;4.60;;;18.30;99.90;;;;;;4974762;28;20035;-57
2022/07/24 01:33:24;;;;;;;4.82;4.15;;;18.30;99.90;;;;;;4991036;28;20023;-59
2022/07/24 01:35:51;;;;;;;6.35;4.78;;;18.40;99.90;;;;;;4975863;28;20023;-58
2022/07/24 01:38:17;;;;;;;6.85;4.85;;;18.40;99.90;;;;;;4991175;28;20026;-59
2022/07/24 01:40:42;;;;;;;5.75;4.50;;;18.30;99.90;;;;;;4990837;28;20038;-57
2022/07/24 01:43:08;;;;;;;5.35;4.50;;;18.30;99.90;;;;;;5007428;28;20023;-59
2022/07/24 01:45:34;;;;;;;5.40;4.22;;;18.30;99.90;;;;;;4991076;28;20022;-59
2022/07/24 01:48:00;;;;;;;10.43;5.43;;;18.30;99.90;;;;;;4990720;28;20030;-59
2022/07/24 01:50:25;;;;;;;6.65;5.13;;;18.40;99.90;;;;;;4975577;28;20029;-57
2022/07/24 01:52:52;;;;;;;6.63;5.13;;;18.40;99.90;;;;;;4975940;28;20033;-59
2022/07/24 01:55:19;;;;;;;8.30;4.90;;;18.30;99.90;;;;;;4975181;28;20031;-59
2022/07/24 01:57:44;;;;;;;6.78;4.70;;;18.20;99.90;;;;;;4990622;28;20094;-59
2022/07/24 02:00:12;;;;;;;6.35;4.97;;;18.20;99.90;;;;;;4974248;28;20069;-59
2022/07/24 02:02:38;;;;;;;5.25;4.32;;;18.30;99.90;;;;;;5006849;28;20023;-58
2022/07/24 02:05:05;;;;;;;7.13;5.00;;;18.40;99.90;;;;;;4975391;28;20023;-59
2022/07/24 02:07:31;;;;;;;6.47;4.57;;;18.40;99.90;;;;;;4975749;28;20034;-55
2022/07/24 02:09:56;;;;;;;5.80;4.95;;;18.30;99.90;;;;;;4975355;28;20022;-57
2022/07/24 02:12:22;;;;;;;5.50;4.60;;;18.30;99.90;;;;;;4975402;28;20495;-57
2022/07/24 02:14:47;;;;;;;6.68;5.30;;;18.30;99.90;;;;;;4974124;28;20094;-57
2022/07/24 02:17:13;;;;;;;6.25;4.70;;;18.30;99.90;;;;;;4974757;28;20031;-58
2022/07/24 02:19:39;;;;;;;9.65;5.13;;;18.20;99.90;;;;;;4990014;28;20019;-59
2022/07/24 02:22:04;;;;;;;8.60;5.30;;;18.10;99.90;;;;;;5007048;28;20026;-59
2022/07/24 02:24:30;;;;;;;6.85;5.28;;;18.00;99.90;;;;;;5006337;28;20397;-57
2022/07/24 02:26:55;;;;;;;8.57;5.70;;;17.90;99.90;;;;;;4973780;28;20030;-58
2022/07/24 02:29:21;;;;;;;6.78;4.95;;;17.80;99.90;;;;;;4973850;28;20026;-56
2022/07/24 02:31:47;;;;;;;7.65;5.28;;;17.80;99.90;;;;;;4974939;28;20023;-59
2022/07/24 02:34:12;;;;;;;10.95;5.30;;;17.70;99.90;;;;;;4990310;28;20188;-59
2022/07/24 02:36:38;;;;;;;8.73;5.50;;;17.60;99.90;;;;;;5006145;28;20031;-60
2022/07/24 02:39:03;;;;;;;7.40;5.38;;;17.80;99.90;;;;;;4974954;28;20026;-58
2022/07/24 02:41:29;;;;;;;9.00;4.88;;;17.70;99.90;;;;;;4975057;28;20018;-59
2022/07/24 02:43:55;;;;;;;8.95;5.50;;;17.70;99.90;;;;;;4974846;28;20058;-57
2022/07/24 02:46:20;;;;;;;6.97;4.78;;;17.70;99.90;;;;;;4989774;28;20027;-57
2022/07/24 02:48:46;;;;;;;11.45;5.38;;;17.60;99.90;;;;;;5006390;28;20027;-59
2022/07/24 02:51:12;;;;;;;6.05;4.82;;;17.60;99.90;;;;;;4973565;28;20023;-59
2022/07/24 02:53:37;;;;;;;7.85;5.13;;;17.50;99.90;;;;;;4989867;28;20379;-58
2022/07/24 02:56:03;;;;;;;8.93;5.05;;;17.50;99.90;;;;;;4989539;28;20105;-59
2022/07/24 02:58:29;;;;;;;6.25;5.03;;;17.40;99.90;;;;;;4974237;28;20481;-58
2022/07/24 03:00:54;;;;;;;5.55;4.50;;;17.50;99.90;;;;;;4974506;28;20038;-59
2022/07/24 03:03:20;;;;;;;8.05;5.15;;;17.50;99.90;;;;;;4989894;28;20050;-59
2022/07/24 03:05:45;;;;;;;6.72;4.25;;;17.50;99.90;;;;;;5006399;28;20027;-59
2022/07/24 03:08:11;;;;;;;7.38;5.13;;;17.50;99.90;;;;;;4989280;28;20544;-59
2022/07/24 03:10:37;;;;;;;7.90;5.18;;;17.40;99.90;;;;;;4974525;28;20109;-58
2022/07/24 03:13:02;;;;;;;7.25;4.72;;;17.40;99.90;;;;;;4989542;28;20029;-56
2022/07/24 03:15:28;;;;;;;6.35;5.18;;;17.40;99.90;;;;;;4989658;28;20019;-59
2022/07/24 03:17:56;;;;;;;7.75;4.45;;;17.40;99.90;;;;;;4974706;28;20110;-57
2022/07/24 03:20:24;;;;;;;9.45;5.38;;;17.30;99.90;;;;;;4974261;28;20027;-59
2022/07/24 03:22:50;;;;;;;7.47;4.93;;;17.20;99.90;;;;;;4974364;28;20026;-58
2022/07/24 03:25:16;;;;;;;9.68;5.75;;;17.30;99.90;;;;;;4974329;28;20536;-58
2022/07/24 03:27:42;;;;;;;9.25;5.28;;;17.20;99.90;;;;;;4974370;28;20030;-57
2022/07/24 03:30:09;;;;;;;8.82;4.90;;;17.30;99.90;;;;;;4974314;28;20065;-58
2022/07/24 03:32:35;;;;;;;5.88;4.25;;;17.20;99.90;;;;;;4989247;28;20027;-59
2022/07/24 03:35:01;;;;;;;8.75;5.45;;;17.30;99.90;;;;;;5005642;28;20512;-59
2022/07/24 03:37:27;;;;;;;7.65;5.95;;;17.40;99.90;;;;;;4974506;28;20023;-59
2022/07/24 03:39:53;;;;;;;8.95;5.05;;;17.40;99.90;;;;;;4989205;28;20026;-58
2022/07/24 03:42:19;;;;;;;8.02;5.47;;;17.30;99.90;;;;;;4974255;28;20018;-59
2022/07/24 03:44:45;;;;;;;6.25;4.45;;;17.20;99.90;;;;;;4974205;28;20030;-59
2022/07/24 03:47:10;;;;;;;10.07;5.10;;;17.20;99.90;;;;;;4972994;28;20027;-59
2022/07/24 03:49:36;;;;;;;7.97;4.93;;;17.40;99.90;;;;;;4974167;28;20054;-59
2022/07/24 03:52:02;;;;;;;7.15;4.97;;;17.40;99.90;;;;;;4974099;28;20030;-57
2022/07/24 03:54:28;;;;;;;12.10;6.40;;;17.40;99.90;;;;;;4989824;28;20033;-57
2022/07/24 03:56:53;;;;;;;9.35;5.65;;;17.40;99.90;;;;;;5005600;28;20030;-56
2022/07/24 03:59:19;;;;;;;7.72;5.63;;;17.40;99.90;;;;;;4989207;28;20019;-56
2022/07/24 04:01:45;;;;;;;5.75;4.85;;;17.40;99.90;;;;;;4988923;28;20023;-58
2022/07/24 04:04:10;;;;;;;8.00;5.78;;;17.40;99.90;;;;;;4974006;28;20027;-57
2022/07/24 04:06:36;;;;;;;8.15;5.60;;;17.40;99.90;;;;;;4974077;28;20118;-57
2022/07/24 04:09:04;;;;;;;7.40;5.65;;;17.40;99.90;;;;;;5005391;28;20027;-59
2022/07/24 04:11:30;;;;;;;8.50;5.00;;;17.40;99.90;;;;;;4989156;28;20094;-59
2022/07/24 04:13:56;;;;;;;9.52;5.57;;;17.50;99.90;;;;;;4973989;28;20038;-59
2022/07/24 04:16:22;;;;;;;7.88;5.57;;;17.70;99.90;;;;;;5005661;28;20031;-60
2022/07/24 04:18:48;;;;;;;8.88;5.90;;;17.90;99.90;;;;;;4974244;28;20025;-58
2022/07/24 04:21:14;;;;;;;8.43;5.55;;;18.00;99.90;;;;;;4977599;28;20046;-57
2022/07/24 04:23:40;;;;;;;8.95;5.30;;;18.20;99.90;;;;;;4992323;28;20025;-59
2022/07/24 04:26:05;;;;;;;8.50;5.53;;;18.20;99.90;;;;;;4977494;28;20065;-59
2022/07/24 04:28:31;;;;;;;8.18;5.20;;;18.30;99.90;;;;;;4977258;28;20106;-59
2022/07/24 04:30:56;;;;;;;9.27;5.47;;;18.50;99.90;;;;;;4976281;28;20038;-57
2022/07/24 04:33:22;;;;;;;7.30;5.45;;;18.70;99.90;;;;;;4993209;28;20023;-57
2022/07/24 04:35:48;;;;;;;8.98;5.38;;;18.90;99.90;;;;;;4992075;28;20026;-58
2022/07/24 04:38:14;;;;;;;7.85;5.55;;;19.10;99.90;;;;;;4977352;28;20080;-59
2022/07/24 04:40:40;;;;;;;6.70;5.53;;;19.30;99.90;;;;;;4976956;28;20022;-60
2022/07/24 04:43:06;;;;;;;9.30;5.80;;;19.40;99.90;;;;;;5008376;28;20018;-59
2022/07/24 04:45:31;;;;;;;6.82;5.50;;;19.50;99.90;;;;;;4992230;28;20059;-58
2022/07/24 04:47:57;;;;;;;7.82;5.28;;;19.70;99.90;;;;;;4991847;28;20023;-60
2022/07/24 04:50:22;;;;;;;6.20;4.93;;;19.90;99.90;;;;;;4976812;28;20117;-58
2022/07/24 04:52:48;;;;;;;5.43;4.93;;;20.20;99.90;;;;;;4976824;28;20106;-59
2022/07/24 04:55:14;;;;;;;6.57;4.78;;;20.40;99.90;;;;;;4976858;28;20118;-58
2022/07/24 04:57:40;;;;;;;6.35;4.90;;;20.70;99.90;;;;;;4976658;28;20031;-60
2022/07/24 05:00:09;;;;;;;7.05;4.50;;;20.90;99.90;;;;;;4991658;28;20109;-58
2022/07/24 05:02:35;;;;;;;6.03;4.65;;;21.20;99.90;;;;;;4991586;28;20115;-56
2022/07/24 05:05:01;;;;;;;5.47;4.40;;;21.50;99.90;;;;;;4977148;28;20123;-56
2022/07/24 05:07:26;;;;;;;5.78;4.35;;;21.60;99.90;;;;;;4976555;28;20027;-56
2022/07/24 05:09:52;;;;;;;5.43;4.25;;;22.00;99.90;;;;;;4976455;28;20110;-59
2022/07/24 05:12:17;;;;;;;8.35;4.30;;;22.30;99.90;;;;;;4991821;28;20023;-58
2022/07/24 05:14:43;;;;;;;4.88;4.38;;;22.60;99.90;;;;;;4991633;28;20117;-59
2022/07/24 05:17:09;;;;;;;8.18;4.72;;;22.80;99.90;;;;;;4976301;28;20027;-59
2022/07/24 05:19:34;;;;;;;5.93;4.35;;;22.80;99.90;;;;;;4976407;28;20081;-57
2022/07/24 05:22:00;;;;;;;5.63;3.92;;;23.20;99.90;;;;;;4991236;28;20030;-59
2022/07/24 05:24:26;;;;;;;4.90;4.28;;;23.60;99.90;;;;;;4991145;28;20038;-60
2022/07/24 05:26:51;;;;;;;5.25;4.65;;;23.90;99.90;;;;;;4974940;28;20094;-59
2022/07/24 05:29:17;;;;;;;7.15;4.47;;;24.20;99.90;;;;;;4991449;28;20026;-58
2022/07/24 05:31:43;;;;;;;6.20;4.00;;;24.40;99.90;;;;;;4974863;28;20212;-56
2022/07/24 05:34:09;;;;;;;3.83;3.47;;;24.60;99.90;;;;;;4991362;28;20377;-56
2022/07/24 05:36:35;;;;;;;4.53;3.78;;;24.90;99.90;;;;;;4990855;28;20030;-56
2022/07/24 05:39:00;;;;;;;4.38;3.67;;;25.20;99.90;;;;;;4975978;28;20500;-59
2022/07/24 05:41:26;;;;;;;8.55;4.78;;;25.30;99.90;;;;;;4975808;28;20090;-58
2022/07/24 05:43:52;;;;;;;4.85;3.20;;;25.60;99.90;;;;;;4976187;28;20023;-59
2022/07/24 05:46:17;;;;;;;3.65;3.35;;;25.70;99.90;;;;;;4975740;28;20175;-59
2022/07/24 05:48:43;;;;;;;4.68;3.38;;;25.90;99.90;;;;;;4990705;28;20204;-59
2022/07/24 05:51:08;;;;;;;3.33;3.00;;;25.90;99.90;;;;;;4975631;28;20033;-60
2022/07/24 05:53:34;;;;;;;5.57;3.85;;;26.10;99.90;;;;;;4991482;28;20033;-59
2022/07/24 05:55:59;;;;;;;5.25;3.72;;;26.20;99.90;;;;;;5006855;28;20030;-60
2022/07/24 05:58:25;;;;;;;6.53;4.00;;;26.20;99.90;;;;;;4990981;28;20035;-58
2022/07/24 06:00:51;;;;;;;3.90;3.08;;;26.40;99.90;;;;;;4975420;28;20029;-56
2022/07/24 06:03:16;;;;;;;4.18;3.78;;;26.50;99.90;;;;;;4990765;28;20027;-57
2022/07/24 06:05:42;;;;;;;4.68;3.65;;;27.00;99.90;;;;;;4990417;28;20027;-59
2022/07/24 06:08:08;;;;;;;4.43;4.03;;;27.30;99.90;;;;;;4975454;28;20057;-57
2022/07/24 06:10:34;;;;;;;3.50;3.20;;;27.50;99.90;;;;;;4990315;28;20039;-58
2022/07/24 06:13:00;;;;;;;6.07;3.40;;;27.90;99.90;;;;;;4975367;28;20031;-60
2022/07/24 06:15:26;;;;;;;5.00;3.88;;;27.80;99.90;;;;;;4975552;28;20083;-57
2022/07/24 06:17:51;;;;;;;6.13;3.70;;;28.30;99.90;;;;;;4975360;28;20162;-56
2022/07/24 06:20:17;;;;;;;4.00;3.63;;;28.70;99.90;;;;;;4975427;28;20031;-59
2022/07/24 06:22:44;;;;;;;5.55;3.70;;;29.20;99.90;;;;;;4990126;28;20057;-60
2022/07/24 06:25:10;;;;;;;4.25;3.53;;;29.70;99.90;;;;;;4990034;28;20158;-55
2022/07/24 06:27:44;;;;;;;5.68;3.97;;;30.00;99.90;;;;;;4975111;28;20070;-58
2022/07/24 06:30:15;;;;;;;4.97;3.22;;;30.20;97.80;;;;;;4989922;28;20461;-58
2022/07/24 06:32:40;;;;;;;4.15;3.22;;;30.50;97.30;;;;;;4990271;28;20109;-58
2022/07/24 06:35:06;;;;;;;3.55;3.08;;;31.10;96.00;;;;;;4975477;28;20062;-55
2022/07/24 06:37:32;;;;;;;3.75;2.83;;;31.40;95.30;;;;;;4990187;28;20034;-56
2022/07/24 06:39:58;;;;;;;5.95;3.70;;;31.40;93.90;;;;;;4975055;28;20102;-57
2022/07/24 06:42:24;;;;;;;3.78;3.35;;;31.80;92.80;;;;;;4989496;28;20401;-56
2022/07/24 06:44:49;;;;;;;5.25;3.25;;;32.20;92.70;;;;;;4973640;28;20117;-58
2022/07/24 06:47:15;;;;;;;3.97;3.20;;;32.30;91.20;;;;;;5005972;28;20130;-59
2022/07/24 06:49:41;;;;;;;4.38;3.20;;;32.20;91.10;;;;;;4989627;28;20023;-57
2022/07/24 06:52:06;;;;;;;3.30;2.72;;;32.50;89.50;;;;;;5007110;28;20474;-54
2022/07/24 06:54:39;;;;;;;4.03;2.92;;;32.20;90.00;;;;;;4989903;28;20026;-58
2022/07/24 06:57:05;;;;;;;3.13;2.70;;;32.40;89.30;;;;;;4975024;28;20110;-55
2022/07/24 06:59:30;;;;;;;4.82;3.00;;;33.00;89.30;;;;;;4989765;28;20062;-56
2022/07/24 07:01:56;;;;;;;4.10;2.75;;;33.70;87.10;;;;;;4974948;28;20033;-59
2022/07/24 07:04:21;;;;;;;4.60;2.70;;;34.30;85.10;;;;;;4989611;28;20049;-57
2022/07/24 07:06:47;;;;;;;4.35;3.28;;;35.00;83.30;;;;;;4990460;28;20023;-59
2022/07/24 07:09:13;;;;;;;4.03;2.95;;;34.60;80.00;;;;;;4974527;28;20529;-58
2022/07/24 07:11:39;;;;;;;3.88;3.03;;;34.20;79.00;;;;;;4989787;28;20031;-58
2022/07/24 07:14:04;;;;;;;5.13;2.83;;;34.50;79.30;;;;;;4989463;28;20061;-59
2022/07/24 07:16:30;;;;;;;3.03;2.70;;;34.70;78.40;;;;;;4974395;28;20027;-55
2022/07/24 07:18:55;;;;;;;4.70;2.80;;;35.30;77.70;;;;;;4989433;28;20027;-58
2022/07/24 07:21:21;;;;;;;2.70;2.50;;;36.10;74.70;;;;;;4974949;28;20038;-55
2022/07/24 07:23:47;;;;;;;5.53;3.03;;;36.90;71.90;;;;;;4989686;28;20029;-58
2022/07/24 07:26:12;;;;;;;3.17;2.88;;;36.60;71.70;;;;;;5005651;28;20023;-59
2022/07/24 07:28:38;;;;;;;3.25;2.85;;;36.70;71.10;;;;;;4989312;28;20031;-59
2022/07/24 07:31:04;;;;;;;3.53;3.05;;;37.00;67.80;;;;;;4974323;28;20031;-59
2022/07/24 07:33:29;;;;;;;3.75;2.58;;;36.60;68.30;;;;;;4974555;28;20034;-59
2022/07/24 07:35:55;;;;;;;3.35;3.05;;;36.90;68.90;;;;;;4974177;28;20030;-59
2022/07/24 07:38:20;;;;;;;3.08;2.55;;;37.00;67.20;;;;;;4989674;28;20074;-59
2022/07/24 07:40:46;;;;;;;5.57;3.03;;;37.30;66.90;;;;;;4974468;28;20070;-59
2022/07/24 07:43:12;;;;;;;4.78;3.03;;;37.00;64.90;;;;;;4974190;28;20027;-56
2022/07/24 07:45:37;;;;;;;3.97;2.70;;;37.10;66.80;;;;;;4989084;28;20023;-58
2022/07/24 07:48:03;;;;;;;3.67;2.67;;;37.10;64.20;;;;;;4989222;28;20034;-58
2022/07/24 07:50:29;;;;;;;2.50;2.30;;;37.00;65.40;;;;;;4974110;28;20034;-55
2022/07/24 07:52:55;;;;;;;4.85;2.75;;;37.60;65.40;;;;;;4974212;28;20055;-54
2022/07/24 07:55:21;;;;;;;3.30;3.00;;;37.70;63.30;;;;;;4991811;28;20054;-59
2022/07/24 07:57:46;;;;;;;2.92;2.58;;;37.80;61.30;;;;;;4978068;28;20038;-60
2022/07/24 08:00:13;;;;;;;4.28;3.08;;;37.90;61.50;;;;;;4977821;28;20051;-59
2022/07/24 08:02:39;;;;;;;3.97;2.85;;;37.90;60.30;;;;;;4976522;28;20027;-59
2022/07/24 08:05:05;;;;;;;3.35;3.05;;;38.60;59.10;;;;;;4992793;28;20113;-56
2022/07/24 08:07:31;;;;;;;5.45;3.35;;;39.10;58.70;;;;;;4976533;28;20089;-59
2022/07/24 08:09:57;;;;;;;2.67;2.47;;;38.90;58.30;;;;;;4977811;28;20402;-60
2022/07/24 08:12:23;;;;;;;4.30;2.97;;;40.20;56.90;;;;;;4977447;28;20032;-60
2022/07/24 08:14:48;;;;;;;3.88;2.90;;;39.90;56.40;;;;;;4977417;28;20037;-60
2022/07/24 08:17:14;;;;;;;3.10;2.70;;;40.20;56.00;;;;;;4976129;28;20121;-58
2022/07/24 08:19:40;;;;;;;3.38;2.50;;;40.10;58.40;;;;;;4977456;28;20019;-59
2022/07/24 08:22:06;;;;;;;4.72;2.70;;;41.10;56.30;;;;;;4977413;28;20026;-59
2022/07/24 08:24:32;;;;;;;3.22;2.95;;;41.90;54.10;;;;;;4975531;28;20030;-58
2022/07/24 08:26:58;;;;;;;5.47;3.10;;;40.90;54.00;;;;;;5007956;28;20115;-59
2022/07/24 08:29:25;;;;;;;4.30;2.83;;;40.80;53.70;;;;;;4976998;28;20031;-57
2022/07/24 08:31:50;;;;;;;3.95;2.60;;;41.50;55.80;;;;;;4992160;28;20081;-58
2022/07/24 08:34:16;;;;;;;4.22;2.85;;;42.10;53.30;;;;;;4991917;28;20026;-58
2022/07/24 08:36:45;;;;;;;3.40;3.10;;;42.40;51.60;;;;;;5008763;28;20039;-60
2022/07/24 08:39:15;;;;;;;2.65;2.45;;;42.30;52.20;;;;;;4992186;28;20034;-60
2022/07/24 08:41:42;;;;;;;5.03;2.70;;;41.80;52.50;;;;;;4992859;28;20086;-60
2022/07/24 08:44:08;;;;;;;5.97;3.75;;;42.60;52.60;;;;;;4992016;28;20059;-58
2022/07/24 08:46:37;;;;;;;4.05;3.03;;;43.40;51.10;;;;;;4992044;28;20058;-59
2022/07/24 08:49:10;;;;;;;4.80;2.85;;;43.60;50.10;;;;;;5008437;28;20026;-59
2022/07/24 08:51:38;;;;;;;3.00;2.80;;;43.10;51.00;;;;;;4977094;28;20477;-56
2022/07/24 08:54:05;;;;;;;3.75;3.13;;;43.30;50.40;;;;;;4992544;28;20114;-59
2022/07/24 08:56:33;;;;;;;3.63;2.75;;;43.70;49.10;;;;;;4976660;28;20034;-58
2022/07/24 08:58:59;;;;;;;3.88;3.10;;;44.20;49.80;;;;;;4976686;28;20041;-59
2022/07/24 09:01:25;;;;;;;5.25;3.38;;;44.60;48.70;;;;;;4976623;28;20023;-57
2022/07/24 09:03:51;;;;;;;3.13;2.92;;;44.60;48.70;;;;;;4991817;28;20029;-57
2022/07/24 09:06:17;;;;;;;3.65;3.35;;;44.20;48.30;;;;;;4991224;28;20022;-57
2022/07/24 09:09:01;;;;;;;3.38;3.10;;;44.40;48.10;;;;;;4991537;28;20027;-55
2022/07/24 09:11:29;;;;;;;3.85;3.50;;;45.00;46.60;;;;;;4976808;28;20030;-57
2022/07/24 09:16:45;;;;;;;6.18;3.13;;;44.60;47.10;;;;;;4976827;28;20034;-57
2022/07/24 09:19:13;;;;;;;4.63;3.40;;;44.80;46.10;;;;;;4976517;28;20026;-58
2022/07/24 09:21:40;;;;;;;3.40;3.20;;;45.80;45.30;;;;;;5007276;28;20081;-57
2022/07/24 09:24:23;;;;;;;3.63;3.33;;;45.60;45.60;;;;;;4991956;28;20023;-57
2022/07/24 09:26:49;;;;;;;4.20;3.80;;;44.60;43.80;;;;;;4976192;28;20101;-57
2022/07/24 09:29:16;;;;;;;5.45;3.40;;;42.70;46.50;;;;;;4975082;28;20030;-58
2022/07/24 09:31:56;;;;;;;5.85;4.00;;;43.80;46.40;;;;;;4991863;28;20038;-57
2022/07/24 09:34:23;;;;;;;5.43;3.97;;;45.00;44.90;;;;;;4976110;28;20027;-58
2022/07/24 09:37:00;;;;;;;6.45;3.90;;;45.30;43.50;;;;;;4975095;28;20035;-58
2022/07/24 09:39:28;;;;;;;3.67;3.03;;;42.80;45.50;;;;;;4975942;28;20111;-58
2022/07/24 09:41:55;;;;;;;6.78;3.78;;;43.50;45.80;;;;;;4990726;28;20029;-58
2022/07/24 09:44:23;;;;;;;3.95;3.40;;;44.80;45.00;;;;;;4975153;28;20078;-57
2022/07/24 09:46:59;;;;;;;3.97;3.67;;;45.50;44.40;;;;;;4976450;28;20077;-59
2022/07/24 09:49:25;;;;;;;6.88;3.83;;;44.00;43.70;;;;;;4976041;28;20037;-59
2022/07/24 09:52:10;;;;;;;4.10;3.70;;;43.10;46.20;;;;;;4975738;28;20105;-59
2022/07/24 09:54:38;;;;;;;5.15;3.80;;;43.00;44.60;;;;;;4975698;28;20106;-58
2022/07/24 09:57:22;;;;;;;3.88;3.58;;;40.90;46.50;;;;;;4975500;28;20062;-57
2022/07/24 10:00:00;;;;;;;4.32;3.72;;;40.70;47.40;;;;;;4974329;28;20027;-55
2022/07/24 10:02:29;;;;;;;6.90;3.55;;;42.00;47.90;;;;;;4991426;28;20027;-56
2022/07/24 10:04:56;;;;;;;4.60;4.05;;;43.50;46.10;;;;;;4990459;28;20174;-58
2022/07/24 10:07:23;;;;;;;5.85;3.28;;;44.30;45.00;;;;;;4990348;28;20033;-59
2022/07/24 10:09:52;;;;;;;3.72;3.25;;;44.50;44.10;;;;;;5006960;28;20054;-59
2022/07/24 10:12:27;;;;;;;6.45;3.22;;;44.80;44.50;;;;;;4990440;28;20026;-58
2022/07/24 10:14:56;;;;;;;6.40;3.63;;;45.00;44.20;;;;;;5007393;28;20062;-59
2022/07/24 10:17:36;;;;;;;5.43;3.42;;;45.40;43.50;;;;;;4989814;28;20038;-59
2022/07/24 10:20:05;;;;;;;16.40;4.10;;;45.70;44.30;;;;;;4973994;28;20038;-59
2022/07/24 10:22:52;;;;;;;4.50;3.70;;;45.50;43.30;;;;;;4991367;28;20037;-59
2022/07/24 10:25:22;;;;;;;3.70;3.33;;;45.80;43.10;;;;;;4975157;28;20034;-58
2022/07/24 10:27:54;;;;;;;4.53;3.80;;;46.50;42.70;;;;;;4975108;28;20035;-58
2022/07/24 10:30:20;;;;;;;4.57;3.63;;;46.70;41.90;;;;;;4975032;28;20118;-58
2022/07/24 10:32:46;;;;;;;4.57;3.50;;;46.50;42.80;;;;;;4990022;28;20382;-58
2022/07/24 10:35:39;;;;;;;3.70;3.40;;;45.60;43.50;;;;;;4975046;28;20066;-59
2022/07/24 10:38:14;;;;;;;4.70;3.50;;;44.90;43.50;;;;;;4975406;28;20034;-59
2022/07/24 10:40:51;;;;;;;3.90;3.50;;;44.10;43.70;;;;;;4974593;28;20018;-59
2022/07/24 10:43:18;;;;;;;3.38;3.08;;;43.40;44.40;;;;;;4990767;28;20034;-59
2022/07/24 10:45:53;;;;;;;5.50;3.70;;;43.10;44.70;;;;;;5006225;28;20065;-57
2022/07/24 10:48:25;;;;;;;6.72;3.67;;;42.70;44.80;;;;;;4974885;28;20037;-59
2022/07/24 10:51:16;;;;;;;4.72;3.60;;;41.90;45.60;;;;;;4974688;28;20031;-59
2022/07/24 10:53:47;;;;;;;4.75;3.22;;;41.20;45.60;;;;;;4974725;28;20026;-59
2022/07/24 10:56:20;;;;;;;4.45;3.47;;;40.20;47.50;;;;;;4974536;28;20097;-58
2022/07/24 10:58:56;;;;;;;4.35;3.20;;;39.20;48.30;;;;;;4973375;28;20062;-56
2022/07/24 11:01:44;;;;;;;3.95;3.40;;;39.00;48.20;;;;;;4974904;28;20015;-59
2022/07/24 11:04:18;;;;;;;3.83;3.45;;;38.30;49.60;;;;;;4989510;28;20054;-59
2022/07/24 11:06:53;;;;;;;6.65;3.78;;;38.00;49.80;;;;;;4974177;28;20035;-59
2022/07/24 11:09:21;;;;;;;3.92;3.50;;;37.20;51.20;;;;;;4974800;28;20023;-55
2022/07/24 11:11:55;;;;;;;4.25;3.70;;;37.10;50.60;;;;;;5006017;28;20027;-59
2022/07/24 11:14:24;;;;;;;3.58;3.20;;;36.70;51.40;;;;;;4974833;28;20028;-58
2022/07/24 11:16:50;;;;;;;5.85;3.47;;;36.60;51.40;;;;;;4973364;28;20027;-58
2022/07/24 11:19:16;;;;;;;5.15;3.35;;;36.40;52.40;;;;;;4974401;28;20069;-59
2022/07/24 11:21:47;;;;;;;4.03;3.20;;;35.70;51.30;;;;;;4973545;28;20039;-58
2022/07/24 11:24:16;;;;;;;5.50;3.50;;;35.00;53.20;;;;;;4989622;28;20490;-59
2022/07/24 11:27:03;;;;;;;3.92;3.53;;;35.00;53.00;;;;;;4974401;28;20026;-59
2022/07/24 11:29:39;;;;;;;4.72;3.90;;;34.90;53.50;;;;;;4977539;28;20039;-59
2022/07/24 11:32:19;;;;;;;4.43;3.97;;;34.50;52.80;;;;;;4993452;28;20102;-57
2022/07/24 11:34:48;;;;;;;6.15;4.57;;;33.70;54.40;;;;;;4993961;28;20026;-57
2022/07/24 11:37:14;;;;;;;6.43;3.70;;;33.00;55.50;;;;;;4978157;28;20039;-59
2022/07/24 11:39:43;;;;;;;4.40;4.00;;;31.80;56.70;;;;;;4978117;28;20035;-59
2022/07/24 11:42:12;;;;;;;5.22;3.78;;;31.60;57.40;;;;;;4978082;28;20029;-59
2022/07/24 11:44:48;;;;;;;4.55;3.80;;;31.70;57.40;;;;;;4978071;28;20023;-58
2022/07/24 11:47:26;;;;;;;4.85;3.70;;;32.20;57.70;;;;;;4978161;28;20023;-57
2022/07/24 11:49:55;;;;;;;7.30;3.63;;;32.10;57.60;;;;;;4993241;28;20026;-58
2022/07/24 11:52:32;;;;;;;5.65;4.07;;;32.40;56.40;;;;;;4977856;28;20030;-56
2022/07/24 11:55:01;;;;;;;7.40;3.55;;;32.40;56.30;;;;;;4977800;28;20023;-52
2022/07/24 11:57:36;;;;;;;6.38;3.92;;;32.40;56.60;;;;;;4992833;28;20089;-55
2022/07/24 12:00:05;;;;;;;10.32;3.90;;;32.40;57.40;;;;;;4992756;28;20023;-57
2022/07/24 12:02:30;;;;;;;7.63;3.85;;;32.60;57.50;;;;;;4977743;28;20019;-60
2022/07/24 12:04:56;;;;;;;6.22;3.63;;;32.70;57.00;;;;;;4992747;28;20473;-59
2022/07/24 12:07:25;;;;;;;4.97;3.60;;;32.80;56.90;;;;;;4977610;28;20027;-57
2022/07/24 12:09:56;;;;;;;3.83;3.40;;;33.00;56.60;;;;;;4992325;28;20037;-57
2022/07/24 12:12:29;;;;;;;;;;;33.00;56.30;;;;;;5010015;28;20034;-59
2022/07/24 12:15:11;;;;;;;4.40;4.00;;;33.10;56.30;;;;;;4977517;28;19906;-58
2022/07/24 12:17:56;;;;;;;5.45;3.85;;;33.00;57.10;;;;;;4992501;28;20030;-58
2022/07/24 12:20:24;;;;;;;4.22;3.83;;;33.10;56.70;;;;;;4977435;28;20062;-59
2022/07/24 12:22:50;;;;;;;4.30;3.90;;;33.10;56.20;;;;;;4976134;28;20034;-59
2022/07/24 12:25:16;;;;;;;5.30;3.80;;;32.50;56.00;;;;;;4977526;28;20515;-59
2022/07/24 12:27:43;;;;;;;4.32;3.92;;;32.10;57.70;;;;;;4977321;28;20109;-57
2022/07/24 12:30:27;;;;;;;4.63;3.38;;;32.00;58.60;;;;;;4977222;28;20023;-59
2022/07/24 12:33:06;;;;;;;4.22;3.83;;;32.20;57.80;;;;;;4993177;28;20033;-59
2022/07/24 12:35:53;;;;;;;5.65;3.95;;;32.30;57.60;;;;;;4977283;28;20157;-58
2022/07/24 12:38:33;;;;;;;4.10;3.65;;;32.00;56.90;;;;;;4977296;28;20077;-58
2022/07/24 12:41:08;;;;;;;4.78;4.18;;;32.00;57.80;;;;;;4991506;28;20023;-55
2022/07/24 12:43:46;;;;;;;5.95;4.80;;;32.00;58.40;;;;;;4975936;28;20023;-58
2022/07/24 12:46:12;;;;;;;8.02;4.00;;;31.90;57.40;;;;;;4976859;28;20027;-56
2022/07/24 12:48:38;;;;;;;7.13;4.13;;;31.70;57.60;;;;;;5008193;28;20030;-59
2022/07/24 12:51:12;;;;;;;4.85;4.38;;;31.30;57.90;;;;;;4991833;28;20027;-59
2022/07/24 12:53:41;;;;;;;5.40;4.00;;;31.10;58.60;;;;;;4992693;28;20115;-59